sensor_id;sensor_type;location;lat;lon;timestamp;pressure;altitude;pressure_sealevel;temperature
15144;BMP180;7672;50.834;6.286;2023-03-12T00:02:21;99272.50;;;7.07
15144;BMP180;7672;50.834;6.286;2023-03-12T00:04:48;99272.50;;;7.09
15144;BMP180;7672;50.834;6.286;2023-03-12T00:07:15;99269.97;;;7.07
15144;BMP180;7672;50.834;6.286;2023-03-12T00:09:42;99269.13;;;7.05
15144;BMP180;7672;50.834;6.286;2023-03-12T00:12:09;99270.84;;;7.06
15144;BMP180;7672;50.834;6.286;2023-03-12T00:14:36;99259.91;;;7.04
15144;BMP180;7672;50.834;6.286;2023-03-12T00:17:03;99262.41;;;7.03
15144;BMP180;7672;50.834;6.286;2023-03-12T00:19:30;99255.69;;;7.02
15144;BMP180;7672;50.834;6.286;2023-03-12T00:21:56;99258.19;;;7.02
15144;BMP180;7672;50.834;6.286;2023-03-12T00:24:23;99248.97;;;7.01
15144;BMP180;7672;50.834;6.286;2023-03-12T00:26:50;99253.19;;;7.02
15144;BMP180;7672;50.834;6.286;2023-03-12T00:29:17;99247.25;;;6.97
15144;BMP180;7672;50.834;6.286;2023-03-12T00:31:43;99249.78;;;7.00
15144;BMP180;7672;50.834;6.286;2023-03-12T00:34:10;99241.44;;;6.99
15144;BMP180;7672;50.834;6.286;2023-03-12T00:36:37;99238.09;;;7.00
15144;BMP180;7672;50.834;6.286;2023-03-12T00:39:06;99248.16;;;7.00
15144;BMP180;7672;50.834;6.286;2023-03-12T00:41:33;99240.59;;;7.00
15144;BMP180;7672;50.834;6.286;2023-03-12T00:44:00;99247.28;;;7.00
15144;BMP180;7672;50.834;6.286;2023-03-12T00:46:27;99239.72;;;6.97
15144;BMP180;7672;50.834;6.286;2023-03-12T00:48:54;99236.38;;;6.96
15144;BMP180;7672;50.834;6.286;2023-03-12T00:51:21;99240.53;;;6.94
15144;BMP180;7672;50.834;6.286;2023-03-12T00:53:48;99238.91;;;6.96
15144;BMP180;7672;50.834;6.286;2023-03-12T00:56:15;99238.91;;;6.98
15144;BMP180;7672;50.834;6.286;2023-03-12T00:58:42;99244.81;;;7.01
15144;BMP180;7672;50.834;6.286;2023-03-12T01:01:09;99232.28;;;7.04
15144;BMP180;7672;50.834;6.286;2023-03-12T01:03:36;99236.50;;;7.07
15144;BMP180;7672;50.834;6.286;2023-03-12T01:06:03;99233.97;;;7.07
15144;BMP180;7672;50.834;6.286;2023-03-12T01:08:30;99223.13;;;7.11
15144;BMP180;7672;50.834;6.286;2023-03-12T01:10:57;99214.75;;;7.12
15144;BMP180;7672;50.834;6.286;2023-03-12T01:13:24;99216.41;;;7.11
15144;BMP180;7672;50.834;6.286;2023-03-12T01:15:51;99207.22;;;7.12
15144;BMP180;7672;50.834;6.286;2023-03-12T01:18:18;99201.38;;;7.13
15144;BMP180;7672;50.834;6.286;2023-03-12T01:20:45;99210.56;;;7.14
15144;BMP180;7672;50.834;6.286;2023-03-12T01:23:13;99208.94;;;7.16
15144;BMP180;7672;50.834;6.286;2023-03-12T01:25:40;99204.78;;;7.18
15144;BMP180;7672;50.834;6.286;2023-03-12T01:28:07;99201.47;;;7.23
15144;BMP180;7672;50.834;6.286;2023-03-12T01:30:34;99196.44;;;7.22
15144;BMP180;7672;50.834;6.286;2023-03-12T01:33:01;99193.06;;;7.21
15144;BMP180;7672;50.834;6.286;2023-03-12T01:35:28;99196.44;;;7.22
15144;BMP180;7672;50.834;6.286;2023-03-12T01:37:55;99183.88;;;7.23
15144;BMP180;7672;50.834;6.286;2023-03-12T01:40:22;99181.38;;;7.25
15144;BMP180;7672;50.834;6.286;2023-03-12T01:42:56;99179.72;;;7.27
15144;BMP180;7672;50.834;6.286;2023-03-12T01:46:03;99177.22;;;7.27
15144;BMP180;7672;50.834;6.286;2023-03-12T01:48:47;99180.53;;;7.24
15144;BMP180;7672;50.834;6.286;2023-03-12T01:51:17;99180.56;;;7.27
15144;BMP180;7672;50.834;6.286;2023-03-12T01:53:48;99168.88;;;7.31
15144;BMP180;7672;50.834;6.286;2023-03-12T01:56:18;99166.38;;;7.34
15144;BMP180;7672;50.834;6.286;2023-03-12T01:58:55;99172.28;;;7.38
15144;BMP180;7672;50.834;6.286;2023-03-12T02:01:24;99159.72;;;7.41
15144;BMP180;7672;50.834;6.286;2023-03-12T02:03:54;99152.22;;;7.44
15144;BMP180;7672;50.834;6.286;2023-03-12T02:06:50;99150.59;;;7.48
15144;BMP180;7672;50.834;6.286;2023-03-12T02:09:20;99154.75;;;7.49
15144;BMP180;7672;50.834;6.286;2023-03-12T02:11:47;99148.06;;;7.49
15144;BMP180;7672;50.834;6.286;2023-03-12T02:14:15;99143.06;;;7.52
15144;BMP180;7672;50.834;6.286;2023-03-12T02:16:43;99138.03;;;7.55
15144;BMP180;7672;50.834;6.286;2023-03-12T02:21:54;99123.88;;;7.62
15144;BMP180;7672;50.834;6.286;2023-03-12T02:24:29;99131.41;;;7.65
15144;BMP180;7672;50.834;6.286;2023-03-12T02:26:58;99129.78;;;7.68
15144;BMP180;7672;50.834;6.286;2023-03-12T02:29:29;99123.06;;;7.72
15144;BMP180;7672;50.834;6.286;2023-03-12T02:32:00;99125.63;;;7.78
15144;BMP180;7672;50.834;6.286;2023-03-12T02:34:29;99125.63;;;7.81
15144;BMP180;7672;50.834;6.286;2023-03-12T02:36:56;99116.44;;;7.86
15144;BMP180;7672;50.834;6.286;2023-03-12T02:39:23;99112.28;;;7.92
15144;BMP180;7672;50.834;6.286;2023-03-12T02:41:55;99120.72;;;7.98
15144;BMP180;7672;50.834;6.286;2023-03-12T02:44:26;99124.94;;;8.02
15144;BMP180;7672;50.834;6.286;2023-03-12T02:46:59;99122.44;;;8.08
15144;BMP180;7672;50.834;6.286;2023-03-12T02:49:30;99116.59;;;8.12
15144;BMP180;7672;50.834;6.286;2023-03-12T02:51:58;99112.44;;;8.16
15144;BMP180;7672;50.834;6.286;2023-03-12T02:54:25;99117.50;;;8.22
15144;BMP180;7672;50.834;6.286;2023-03-12T02:56:53;99109.13;;;8.26
15144;BMP180;7672;50.834;6.286;2023-03-12T02:59:22;99110.81;;;8.28
15144;BMP180;7672;50.834;6.286;2023-03-12T03:01:57;99101.56;;;8.29
15144;BMP180;7672;50.834;6.286;2023-03-12T03:04:27;99100.75;;;8.30
15144;BMP180;7672;50.834;6.286;2023-03-12T03:06:54;99102.44;;;8.32
15144;BMP180;7672;50.834;6.286;2023-03-12T03:09:23;99109.16;;;8.35
15144;BMP180;7672;50.834;6.286;2023-03-12T03:11:49;99106.66;;;8.38
15144;BMP180;7672;50.834;6.286;2023-03-12T03:14:17;99110.88;;;8.40
15144;BMP180;7672;50.834;6.286;2023-03-12T03:16:44;99105.84;;;8.43
15144;BMP180;7672;50.834;6.286;2023-03-12T03:19:11;99107.53;;;8.44
15144;BMP180;7672;50.834;6.286;2023-03-12T03:21:40;99101.66;;;8.47
15144;BMP180;7672;50.834;6.286;2023-03-12T03:24:07;99110.88;;;8.48
15144;BMP180;7672;50.834;6.286;2023-03-12T03:26:34;99101.66;;;8.50
15144;BMP180;7672;50.834;6.286;2023-03-12T03:29:01;99103.34;;;8.51
15144;BMP180;7672;50.834;6.286;2023-03-12T03:31:28;99101.69;;;8.54
15144;BMP180;7672;50.834;6.286;2023-03-12T03:33:54;99097.47;;;8.56
15144;BMP180;7672;50.834;6.286;2023-03-12T03:36:21;99091.59;;;8.57
15144;BMP180;7672;50.834;6.286;2023-03-12T03:38:48;99093.25;;;8.57
15144;BMP180;7672;50.834;6.286;2023-03-12T03:41:18;99088.22;;;8.57
15144;BMP180;7672;50.834;6.286;2023-03-12T03:43:46;99091.59;;;8.56
15144;BMP180;7672;50.834;6.286;2023-03-12T03:46:14;99089.09;;;8.54
15144;BMP180;7672;50.834;6.286;2023-03-12T03:48:41;99079.00;;;8.53
15144;BMP180;7672;50.834;6.286;2023-03-12T03:51:10;99073.13;;;8.51
15144;BMP180;7672;50.834;6.286;2023-03-12T03:53:37;99068.91;;;8.50
15144;BMP180;7672;50.834;6.286;2023-03-12T03:56:09;99069.75;;;8.49
15144;BMP180;7672;50.834;6.286;2023-03-12T03:58:37;99064.72;;;8.49
15144;BMP180;7672;50.834;6.286;2023-03-12T04:01:04;99066.41;;;8.48
15144;BMP180;7672;50.834;6.286;2023-03-12T04:03:32;99076.47;;;8.50
15144;BMP180;7672;50.834;6.286;2023-03-12T04:06:03;99069.75;;;8.49
15144;BMP180;7672;50.834;6.286;2023-03-12T04:08:30;99066.41;;;8.48
15144;BMP180;7672;50.834;6.286;2023-03-12T04:10:58;99066.41;;;8.47
15144;BMP180;7672;50.834;6.286;2023-03-12T04:13:25;99062.16;;;8.43
15144;BMP180;7672;50.834;6.286;2023-03-12T04:15:52;99063.03;;;8.40
15144;BMP180;7672;50.834;6.286;2023-03-12T04:18:19;99058.81;;;8.35
15144;BMP180;7672;50.834;6.286;2023-03-12T04:20:46;99068.03;;;8.33
15144;BMP180;7672;50.834;6.286;2023-03-12T04:23:13;99057.94;;;8.30
15144;BMP180;7672;50.834;6.286;2023-03-12T04:25:40;99062.16;;;8.29
15144;BMP180;7672;50.834;6.286;2023-03-12T04:28:07;99059.63;;;8.29
15144;BMP180;7672;50.834;6.286;2023-03-12T04:30:34;99055.44;;;8.28
15144;BMP180;7672;50.834;6.286;2023-03-12T04:33:05;99050.41;;;8.27
15144;BMP180;7672;50.834;6.286;2023-03-12T04:35:32;99053.75;;;8.27
15144;BMP180;7672;50.834;6.286;2023-03-12T04:38:02;99047.06;;;8.26
15144;BMP180;7672;50.834;6.286;2023-03-12T04:40:29;99049.56;;;8.28
15144;BMP180;7672;50.834;6.286;2023-03-12T04:42:56;99049.56;;;8.29
15144;BMP180;7672;50.834;6.286;2023-03-12T04:45:23;99041.16;;;8.29
15144;BMP180;7672;50.834;6.286;2023-03-12T04:47:50;99031.94;;;8.28
15144;BMP180;7672;50.834;6.286;2023-03-12T04:50:17;99027.75;;;8.28
15144;BMP180;7672;50.834;6.286;2023-03-12T04:52:43;99023.53;;;8.27
15144;BMP180;7672;50.834;6.286;2023-03-12T04:55:10;99030.25;;;8.28
15144;BMP180;7672;50.834;6.286;2023-03-12T04:57:37;99031.13;;;8.30
15144;BMP180;7672;50.834;6.286;2023-03-12T05:00:05;99027.75;;;8.28
15144;BMP180;7672;50.834;6.286;2023-03-12T05:02:36;99019.34;;;8.25
15144;BMP180;7672;50.834;6.286;2023-03-12T05:05:04;99014.31;;;8.20
15144;BMP180;7672;50.834;6.286;2023-03-12T05:07:31;99012.63;;;8.19
15144;BMP180;7672;50.834;6.286;2023-03-12T05:09:58;99000.03;;;8.16
15144;BMP180;7672;50.834;6.286;2023-03-12T05:12:25;99006.72;;;8.14
15144;BMP180;7672;50.834;6.286;2023-03-12T05:14:52;99009.25;;;8.14
15144;BMP180;7672;50.834;6.286;2023-03-12T05:17:18;98999.19;;;8.14
15144;BMP180;7672;50.834;6.286;2023-03-12T05:19:45;98996.63;;;8.13
15144;BMP180;7672;50.834;6.286;2023-03-12T05:22:12;99010.91;;;8.12
15144;BMP180;7672;50.834;6.286;2023-03-12T05:24:39;98999.97;;;8.10
15144;BMP180;7672;50.834;6.286;2023-03-12T05:27:05;98999.16;;;8.11
15144;BMP180;7672;50.834;6.286;2023-03-12T05:29:34;98983.22;;;8.12
15144;BMP180;7672;50.834;6.286;2023-03-12T05:32:02;98997.53;;;8.15
15144;BMP180;7672;50.834;6.286;2023-03-12T05:34:30;98989.09;;;8.16
15144;BMP180;7672;50.834;6.286;2023-03-12T05:36:57;98985.75;;;8.15
15144;BMP180;7672;50.834;6.286;2023-03-12T05:39:26;98982.41;;;8.18
15144;BMP180;7672;50.834;6.286;2023-03-12T05:41:53;98984.06;;;8.14
15144;BMP180;7672;50.834;6.286;2023-03-12T05:44:23;98969.78;;;8.12
15144;BMP180;7672;50.834;6.286;2023-03-12T05:46:51;98963.06;;;8.09
15144;BMP180;7672;50.834;6.286;2023-03-12T05:49:21;98959.72;;;8.07
15144;BMP180;7672;50.834;6.286;2023-03-12T05:51:49;98958.88;;;8.05
15144;BMP180;7672;50.834;6.286;2023-03-12T05:54:16;98965.56;;;8.06
15144;BMP180;7672;50.834;6.286;2023-03-12T05:56:43;98958.03;;;8.08
15144;BMP180;7672;50.834;6.286;2023-03-12T05:59:10;98951.34;;;8.10
15144;BMP180;7672;50.834;6.286;2023-03-12T06:01:37;98958.09;;;8.15
15144;BMP180;7672;50.834;6.286;2023-03-12T06:04:04;98959.75;;;8.21
15144;BMP180;7672;50.834;6.286;2023-03-12T06:06:33;98959.78;;;8.25
15144;BMP180;7672;50.834;6.286;2023-03-12T06:09:00;98963.16;;;8.32
15144;BMP180;7672;50.834;6.286;2023-03-12T06:11:27;98968.16;;;8.36
15144;BMP180;7672;50.834;6.286;2023-03-12T06:13:55;98963.16;;;8.42
15144;BMP180;7672;50.834;6.286;2023-03-12T06:16:25;98964.81;;;8.46
15144;BMP180;7672;50.834;6.286;2023-03-12T06:18:58;98959.81;;;8.49
15144;BMP180;7672;50.834;6.286;2023-03-12T06:21:29;98967.34;;;8.52
15144;BMP180;7672;50.834;6.286;2023-03-12T06:23:58;98971.56;;;8.56
15144;BMP180;7672;50.834;6.286;2023-03-12T06:26:25;98968.19;;;8.59
15144;BMP180;7672;50.834;6.286;2023-03-12T06:28:53;98974.09;;;8.62
15144;BMP180;7672;50.834;6.286;2023-03-12T06:31:21;98969.03;;;8.65
15144;BMP180;7672;50.834;6.286;2023-03-12T06:33:48;98964.84;;;8.67
15144;BMP180;7672;50.834;6.286;2023-03-12T06:36:15;98964.00;;;8.71
15144;BMP180;7672;50.834;6.286;2023-03-12T06:38:42;98966.50;;;8.75
15144;BMP180;7672;50.834;6.286;2023-03-12T06:41:14;98965.66;;;8.78
15144;BMP180;7672;50.834;6.286;2023-03-12T06:43:42;98976.59;;;8.83
15144;BMP180;7672;50.834;6.286;2023-03-12T06:46:16;98981.63;;;8.87
15144;BMP180;7672;50.834;6.286;2023-03-12T06:48:44;98967.34;;;8.91
15144;BMP180;7672;50.834;6.286;2023-03-12T06:51:14;98963.13;;;8.96
15144;BMP180;7672;50.834;6.286;2023-03-12T06:53:42;98953.88;;;8.99
15144;BMP180;7672;50.834;6.286;2023-03-12T06:56:11;98959.75;;;9.04
15144;BMP180;7672;50.834;6.286;2023-03-12T06:58:38;98961.44;;;9.08
15144;BMP180;7672;50.834;6.286;2023-03-12T07:01:05;98962.28;;;9.12
15144;BMP180;7672;50.834;6.286;2023-03-12T07:03:32;98964.78;;;9.15
15144;BMP180;7672;50.834;6.286;2023-03-12T07:05:59;98966.47;;;9.22
15144;BMP180;7672;50.834;6.286;2023-03-12T07:08:27;98955.53;;;9.25
15144;BMP180;7672;50.834;6.286;2023-03-12T07:10:58;98950.47;;;9.27
15144;BMP180;7672;50.834;6.286;2023-03-12T07:13:28;98948.78;;;9.35
15144;BMP180;7672;50.834;6.286;2023-03-12T07:15:55;98950.47;;;9.39
15144;BMP180;7672;50.834;6.286;2023-03-12T07:18:22;98942.88;;;9.46
15144;BMP180;7672;50.834;6.286;2023-03-12T07:20:48;98938.63;;;9.53
15144;BMP180;7672;50.834;6.286;2023-03-12T07:23:15;98943.63;;;9.59
15144;BMP180;7672;50.834;6.286;2023-03-12T07:25:43;98954.53;;;9.65
15144;BMP180;7672;50.834;6.286;2023-03-12T07:28:11;98952.84;;;9.72
15144;BMP180;7672;50.834;6.286;2023-03-12T07:30:39;98955.34;;;9.76
15144;BMP180;7672;50.834;6.286;2023-03-12T07:33:11;98957.84;;;9.82
15144;BMP180;7672;50.834;6.286;2023-03-12T07:35:39;98956.16;;;9.87
15144;BMP180;7672;50.834;6.286;2023-03-12T07:38:08;98957.78;;;9.94
15144;BMP180;7672;50.834;6.286;2023-03-12T07:40:35;98958.63;;;9.97
15144;BMP180;7672;50.834;6.286;2023-03-12T07:43:03;98956.94;;;10.01
15144;BMP180;7672;50.834;6.286;2023-03-12T07:45:38;98951.03;;;10.05
15144;BMP180;7672;50.834;6.286;2023-03-12T07:48:06;98947.63;;;10.09
15144;BMP180;7672;50.834;6.286;2023-03-12T07:50:33;98950.16;;;10.13
15144;BMP180;7672;50.834;6.286;2023-03-12T07:53:00;98946.75;;;10.17
15144;BMP180;7672;50.834;6.286;2023-03-12T07:55:27;98939.16;;;10.20
15144;BMP180;7672;50.834;6.286;2023-03-12T07:57:54;98938.28;;;10.24
15144;BMP180;7672;50.834;6.286;2023-03-12T08:00:25;98945.84;;;10.29
15144;BMP180;7672;50.834;6.286;2023-03-12T08:02:52;98947.47;;;10.33
15144;BMP180;7672;50.834;6.286;2023-03-12T08:05:20;98941.56;;;10.37
15144;BMP180;7672;50.834;6.286;2023-03-12T08:07:51;98949.13;;;10.41
15144;BMP180;7672;50.834;6.286;2023-03-12T08:10:19;98943.97;;;10.48
15144;BMP180;7672;50.834;6.286;2023-03-12T08:12:47;98942.25;;;10.53
15144;BMP180;7672;50.834;6.286;2023-03-12T08:15:14;98945.59;;;10.58
15144;BMP180;7672;50.834;6.286;2023-03-12T08:17:41;98951.44;;;10.65
15144;BMP180;7672;50.834;6.286;2023-03-12T08:20:10;98941.28;;;10.71
15144;BMP180;7672;50.834;6.286;2023-03-12T08:22:38;98947.97;;;10.78
15144;BMP180;7672;50.834;6.286;2023-03-12T08:25:06;98951.28;;;10.84
15144;BMP180;7672;50.834;6.286;2023-03-12T08:27:34;98945.34;;;10.88
15144;BMP180;7672;50.834;6.286;2023-03-12T08:30:03;98941.91;;;10.94
15144;BMP180;7672;50.834;6.286;2023-03-12T08:32:31;98946.94;;;10.98
15144;BMP180;7672;50.834;6.286;2023-03-12T08:34:59;98945.19;;;11.05
15144;BMP180;7672;50.834;6.286;2023-03-12T08:37:25;98951.84;;;11.11
15144;BMP180;7672;50.834;6.286;2023-03-12T08:39:52;98947.56;;;11.19
15144;BMP180;7672;50.834;6.286;2023-03-12T08:42:19;98950.00;;;11.30
15144;BMP180;7672;50.834;6.286;2023-03-12T08:44:46;98948.22;;;11.38
15144;BMP180;7672;50.834;6.286;2023-03-12T08:47:12;98960.75;;;11.47
15144;BMP180;7672;50.834;6.286;2023-03-12T08:49:39;98953.97;;;11.52
15144;BMP180;7672;50.834;6.286;2023-03-12T08:52:06;98955.59;;;11.57
15144;BMP180;7672;50.834;6.286;2023-03-12T08:54:33;98950.44;;;11.65
15144;BMP180;7672;50.834;6.286;2023-03-12T08:57:00;98950.38;;;11.71
15144;BMP180;7672;50.834;6.286;2023-03-12T08:59:30;98952.78;;;11.81
15144;BMP180;7672;50.834;6.286;2023-03-12T09:01:56;98964.50;;;11.89
15144;BMP180;7672;50.834;6.286;2023-03-12T09:04:23;98968.63;;;11.98
15144;BMP180;7672;50.834;6.286;2023-03-12T09:06:50;98960.03;;;12.06
15144;BMP180;7672;50.834;6.286;2023-03-12T09:09:17;98970.94;;;12.14
15144;BMP180;7672;50.834;6.286;2023-03-12T09:11:43;98978.38;;;12.22
15144;BMP180;7672;50.834;6.286;2023-03-12T09:14:10;98980.03;;;12.27
15144;BMP180;7672;50.834;6.286;2023-03-12T09:16:57;98979.09;;;12.32
15144;BMP180;7672;50.834;6.286;2023-03-12T09:19:24;98982.41;;;12.37
15144;BMP180;7672;50.834;6.286;2023-03-12T09:21:51;98986.59;;;12.40
15144;BMP180;7672;50.834;6.286;2023-03-12T09:24:18;98982.31;;;12.43
15144;BMP180;7672;50.834;6.286;2023-03-12T09:26:45;98992.44;;;12.45
15144;BMP180;7672;50.834;6.286;2023-03-12T09:29:12;98989.88;;;12.46
15144;BMP180;7672;50.834;6.286;2023-03-12T09:31:39;99002.47;;;12.49
15144;BMP180;7672;50.834;6.286;2023-03-12T09:34:06;98995.72;;;12.51
15144;BMP180;7672;50.834;6.286;2023-03-12T09:36:33;98993.97;;;12.55
15144;BMP180;7672;50.834;6.286;2023-03-12T09:39:02;98982.88;;;12.62
15144;BMP180;7672;50.834;6.286;2023-03-12T09:41:35;98996.28;;;12.68
15144;BMP180;7672;50.834;6.286;2023-03-12T09:44:10;98991.13;;;12.74
15144;BMP180;7672;50.834;6.286;2023-03-12T09:47:03;98994.44;;;12.79
15144;BMP180;7672;50.834;6.286;2023-03-12T09:49:50;98991.81;;;12.84
15144;BMP180;7672;50.834;6.286;2023-03-12T09:52:46;98991.78;;;12.88
15144;BMP180;7672;50.834;6.286;2023-03-12T09:55:18;98987.50;;;12.92
15144;BMP180;7672;50.834;6.286;2023-03-12T09:57:48;98993.31;;;12.98
15144;BMP180;7672;50.834;6.286;2023-03-12T10:00:21;99010.09;;;13.06
15144;BMP180;7672;50.834;6.286;2023-03-12T10:06:06;99006.47;;;13.19
15144;BMP180;7672;50.834;6.286;2023-03-12T10:09:13;99013.16;;;13.23
15144;BMP180;7672;50.834;6.286;2023-03-12T10:20:59;99029.75;;;13.42
15144;BMP180;7672;50.834;6.286;2023-03-12T10:26:09;99029.66;;;13.48
15144;BMP180;7672;50.834;6.286;2023-03-12T10:28:50;99022.78;;;13.52
15144;BMP180;7672;50.834;6.286;2023-03-12T10:31:36;99035.44;;;13.55
15144;BMP180;7672;50.834;6.286;2023-03-12T10:34:52;99037.88;;;13.59
15144;BMP180;7672;50.834;6.286;2023-03-12T10:37:29;99035.28;;;13.63
15144;BMP180;7672;50.834;6.286;2023-03-12T10:39:57;99034.38;;;13.66
15144;BMP180;7672;50.834;6.286;2023-03-12T10:42:28;99044.44;;;13.70
15144;BMP180;7672;50.834;6.286;2023-03-12T10:45:00;99047.75;;;13.74
15144;BMP180;7672;50.834;6.286;2023-03-12T10:47:37;99049.41;;;13.76
15144;BMP180;7672;50.834;6.286;2023-03-12T10:52:52;99048.59;;;13.76
15144;BMP180;7672;50.834;6.286;2023-03-12T10:55:28;99053.63;;;13.77
15144;BMP180;7672;50.834;6.286;2023-03-12T10:57:56;99056.22;;;13.76
15144;BMP180;7672;50.834;6.286;2023-03-12T11:00:26;99067.16;;;13.78
15144;BMP180;7672;50.834;6.286;2023-03-12T11:03:18;99061.22;;;13.79
15144;BMP180;7672;50.834;6.286;2023-03-12T11:05:49;99058.59;;;13.82
15144;BMP180;7672;50.834;6.286;2023-03-12T11:08:29;99046.69;;;13.85
15144;BMP180;7672;50.834;6.286;2023-03-12T11:10:59;99048.34;;;13.88
15144;BMP180;7672;50.834;6.286;2023-03-12T11:13:35;99044.88;;;13.92
15144;BMP180;7672;50.834;6.286;2023-03-12T11:16:24;99048.19;;;13.95
15144;BMP180;7672;50.834;6.286;2023-03-12T11:19:02;99041.28;;;14.02
15144;BMP180;7672;50.834;6.286;2023-03-12T11:21:33;99044.59;;;14.07
15144;BMP180;7672;50.834;6.286;2023-03-12T11:24:14;99050.44;;;14.12
15144;BMP180;7672;50.834;6.286;2023-03-12T11:27:04;99054.47;;;14.22
15144;BMP180;7672;50.834;6.286;2023-03-12T11:29:38;99045.69;;;14.36
15144;BMP180;7672;50.834;6.286;2023-03-12T11:32:16;99037.63;;;14.57
15144;BMP180;7672;50.834;6.286;2023-03-12T11:34:45;99034.41;;;14.85
15144;BMP180;7672;50.834;6.286;2023-03-12T11:40:46;99035.81;;;15.64
15144;BMP180;7672;50.834;6.286;2023-03-12T11:43:52;99039.72;;;16.06
15144;BMP180;7672;50.834;6.286;2023-03-12T11:49:20;99058.94;;;16.48
15144;BMP180;7672;50.834;6.286;2023-03-12T11:52:42;99047.47;;;16.61
15144;BMP180;7672;50.834;6.286;2023-03-12T11:55:41;99040.56;;;16.64
15144;BMP180;7672;50.834;6.286;2023-03-12T12:04:41;99027.66;;;16.69
15144;BMP180;7672;50.834;6.286;2023-03-12T12:13:27;99026.09;;;16.90
15144;BMP180;7672;50.834;6.286;2023-03-12T12:16:20;99017.31;;;16.99
15144;BMP180;7672;50.834;6.286;2023-03-12T12:36:30;99018.97;;;17.27
15144;BMP180;7672;50.834;6.286;2023-03-12T12:39:22;99016.25;;;17.32
15144;BMP180;7672;50.834;6.286;2023-03-12T12:41:58;99010.22;;;17.34
15144;BMP180;7672;50.834;6.286;2023-03-12T12:44:35;99004.06;;;17.39
15144;BMP180;7672;50.834;6.286;2023-03-12T12:47:09;99001.31;;;17.45
15144;BMP180;7672;50.834;6.286;2023-03-12T12:49:55;99003.66;;;17.51
15144;BMP180;7672;50.834;6.286;2023-03-12T12:52:25;99001.81;;;17.55
15144;BMP180;7672;50.834;6.286;2023-03-12T12:58:42;99000.16;;;17.54
15144;BMP180;7672;50.834;6.286;2023-03-12T13:01:13;98994.94;;;17.57
15144;BMP180;7672;50.834;6.286;2023-03-12T13:03:42;98995.69;;;17.60
15144;BMP180;7672;50.834;6.286;2023-03-12T13:06:10;98997.06;;;17.69
15144;BMP180;7672;50.834;6.286;2023-03-12T13:16:36;98979.50;;;18.05
15144;BMP180;7672;50.834;6.286;2023-03-12T13:22:23;98979.81;;;18.21
15144;BMP180;7672;50.834;6.286;2023-03-12T13:25:23;98982.41;;;18.19
15144;BMP180;7672;50.834;6.286;2023-03-12T13:28:30;98977.41;;;18.16
15144;BMP180;7672;50.834;6.286;2023-03-12T13:34:28;98983.28;;;18.20
15144;BMP180;7672;50.834;6.286;2023-03-12T13:36:39;98978.22;;;18.18
15144;BMP180;7672;50.834;6.286;2023-03-12T13:41:53;98964.00;;;18.10
15144;BMP180;7672;50.834;6.286;2023-03-12T13:55:33;98953.06;;;18.06
15144;BMP180;7672;50.834;6.286;2023-03-12T13:58:12;98943.63;;;18.08
15144;BMP180;7672;50.834;6.286;2023-03-12T14:00:55;98935.00;;;18.11
15144;BMP180;7672;50.834;6.286;2023-03-12T14:03:53;98937.66;;;18.08
15144;BMP180;7672;50.834;6.286;2023-03-12T14:06:26;98933.38;;;18.08
15144;BMP180;7672;50.834;6.286;2023-03-12T14:12:11;98923.25;;;18.05
15144;BMP180;7672;50.834;6.286;2023-03-12T14:17:35;98919.16;;;18.01
15144;BMP180;7672;50.834;6.286;2023-03-12T14:20:17;98915.84;;;17.99
15144;BMP180;7672;50.834;6.286;2023-03-12T14:22:53;98908.22;;;17.98
15144;BMP180;7672;50.834;6.286;2023-03-12T14:25:33;98908.31;;;17.95
15144;BMP180;7672;50.834;6.286;2023-03-12T14:28:09;98902.38;;;17.95
15144;BMP180;7672;50.834;6.286;2023-03-12T14:30:46;98928.84;;;17.94
15144;BMP180;7672;50.834;6.286;2023-03-12T14:33:15;98918.50;;;17.96
15144;BMP180;7672;50.834;6.286;2023-03-12T14:35:49;98944.69;;;18.03
15144;BMP180;7672;50.834;6.286;2023-03-12T14:38:31;98934.22;;;18.09
15144;BMP180;7672;50.834;6.286;2023-03-12T14:41:33;98928.06;;;18.14
15144;BMP180;7672;50.834;6.286;2023-03-12T14:44:19;98930.44;;;18.19
15144;BMP180;7672;50.834;6.286;2023-03-12T14:46:56;98935.41;;;18.23
15144;BMP180;7672;50.834;6.286;2023-03-12T14:49:22;98938.66;;;18.27
15144;BMP180;7672;50.834;6.286;2023-03-12T14:51:50;98949.59;;;18.30
15144;BMP180;7672;50.834;6.286;2023-03-12T14:54:19;98944.50;;;18.30
15144;BMP180;7672;50.834;6.286;2023-03-12T14:56:46;98947.94;;;18.29
15144;BMP180;7672;50.834;6.286;2023-03-12T14:59:32;98956.63;;;18.25
15144;BMP180;7672;50.834;6.286;2023-03-12T15:02:12;98953.41;;;18.20
15144;BMP180;7672;50.834;6.286;2023-03-12T15:04:40;98963.78;;;18.16
15144;BMP180;7672;50.834;6.286;2023-03-12T15:07:12;98960.50;;;18.12
15144;BMP180;7672;50.834;6.286;2023-03-12T15:09:45;98965.84;;;18.06
15144;BMP180;7672;50.834;6.286;2023-03-12T15:12:25;98977.97;;;18.01
15144;BMP180;7672;50.834;6.286;2023-03-12T15:15:04;98977.41;;;17.94
15144;BMP180;7672;50.834;6.286;2023-03-12T15:17:33;98987.09;;;17.86
15144;BMP180;7672;50.834;6.286;2023-03-12T15:20:05;98981.44;;;17.78
15144;BMP180;7672;50.834;6.286;2023-03-12T15:22:36;98989.44;;;17.67
15144;BMP180;7672;50.834;6.286;2023-03-12T15:25:29;98983.84;;;17.58
15144;BMP180;7672;50.834;6.286;2023-03-12T15:30:37;98984.94;;;17.51
15144;BMP180;7672;50.834;6.286;2023-03-12T15:35:35;98972.47;;;17.42
15144;BMP180;7672;50.834;6.286;2023-03-12T15:38:03;98970.91;;;17.38
15144;BMP180;7672;50.834;6.286;2023-03-12T15:40:30;98994.03;;;17.35
15144;BMP180;7672;50.834;6.286;2023-03-12T15:42:58;98977.06;;;17.33
15144;BMP180;7672;50.834;6.286;2023-03-12T15:45:37;98977.22;;;17.28
15144;BMP180;7672;50.834;6.286;2023-03-12T15:48:27;98979.06;;;17.23
15144;BMP180;7672;50.834;6.286;2023-03-12T15:50:55;98985.06;;;17.22
15144;BMP180;7672;50.834;6.286;2023-03-12T15:53:25;98986.84;;;17.20
15144;BMP180;7672;50.834;6.286;2023-03-12T15:56:17;98975.94;;;17.15
15144;BMP180;7672;50.834;6.286;2023-03-12T15:58:46;98977.69;;;17.13
15144;BMP180;7672;50.834;6.286;2023-03-12T16:01:23;98985.41;;;17.12
15144;BMP180;7672;50.834;6.286;2023-03-12T16:03:54;98995.78;;;17.07
15144;BMP180;7672;50.834;6.286;2023-03-12T16:06:25;98990.81;;;17.03
15144;BMP180;7672;50.834;6.286;2023-03-12T16:09:01;98994.34;;;16.99
15144;BMP180;7672;50.834;6.286;2023-03-12T16:11:32;98998.81;;;16.92
15144;BMP180;7672;50.834;6.286;2023-03-12T16:14:03;98992.97;;;16.89
15144;BMP180;7672;50.834;6.286;2023-03-12T16:16:32;98997.41;;;16.84
15144;BMP180;7672;50.834;6.286;2023-03-12T16:18:58;98990.66;;;16.81
15144;BMP180;7672;50.834;6.286;2023-03-12T16:21:25;98996.69;;;16.79
15144;BMP180;7672;50.834;6.286;2023-03-12T16:23:52;98992.59;;;16.75
15144;BMP180;7672;50.834;6.286;2023-03-12T16:26:19;99001.22;;;16.71
15144;BMP180;7672;50.834;6.286;2023-03-12T16:28:47;98996.16;;;16.70
15144;BMP180;7672;50.834;6.286;2023-03-12T16:31:15;98995.41;;;16.66
15144;BMP180;7672;50.834;6.286;2023-03-12T16:33:43;98988.66;;;16.65